createdAt,value
2023-05-17T00:01:32.431Z,99.90
2023-05-17T00:04:05.189Z,99.90
2023-05-17T00:06:38.013Z,99.90
2023-05-17T00:09:10.580Z,99.90
2023-05-17T00:11:43.649Z,99.90
2023-05-17T00:14:16.581Z,99.90
2023-05-17T00:16:49.426Z,99.90
2023-05-17T00:19:22.045Z,99.90
2023-05-17T00:21:54.993Z,99.90
2023-05-17T00:24:27.540Z,99.90
2023-05-17T00:27:00.475Z,99.90
2023-05-17T00:29:33.079Z,99.90
2023-05-17T00:32:06.267Z,99.90
2023-05-17T00:34:38.800Z,99.90
2023-05-17T00:37:11.619Z,99.90
2023-05-17T00:39:44.230Z,99.90
2023-05-17T00:42:17.078Z,99.90
2023-05-17T00:44:49.572Z,99.90
2023-05-17T00:47:22.528Z,99.90
2023-05-17T00:49:55.206Z,99.90
2023-05-17T00:52:28.042Z,99.90
2023-05-17T00:55:00.714Z,99.90
2023-05-17T00:57:33.942Z,99.90
2023-05-17T01:00:07.217Z,99.90
2023-05-17T01:02:40.144Z,99.90
2023-05-17T01:05:12.704Z,99.90
2023-05-17T01:07:45.480Z,99.90
2023-05-17T01:10:18.236Z,99.90
2023-05-17T01:13:06.180Z,99.90
2023-05-17T01:15:44.874Z,99.90
2023-05-17T01:18:17.892Z,99.90
2023-05-17T01:20:52.897Z,99.90
2023-05-17T01:23:47.238Z,99.90
2023-05-17T01:26:39.517Z,99.90
2023-05-17T01:29:16.396Z,99.90
2023-05-17T01:31:50.033Z,99.90
2023-05-17T01:34:27.809Z,99.90
2023-05-17T01:37:00.551Z,99.90
2023-05-17T01:39:33.574Z,99.90
2023-05-17T01:42:22.858Z,99.90
2023-05-17T01:45:28.160Z,99.90
2023-05-17T01:48:13.427Z,99.90
2023-05-17T01:50:51.238Z,99.90
2023-05-17T01:53:37.071Z,99.90
2023-05-17T01:56:20.329Z,99.90
2023-05-17T01:58:53.391Z,99.90
2023-05-17T02:01:28.773Z,99.90
2023-05-17T02:04:01.544Z,99.90
2023-05-17T02:06:34.438Z,99.90
2023-05-17T02:09:07.035Z,99.90
2023-05-17T02:11:39.889Z,99.90
2023-05-17T02:14:12.447Z,99.90
2023-05-17T02:16:45.251Z,99.90
2023-05-17T02:19:17.870Z,99.90
2023-05-17T02:21:50.844Z,99.90
2023-05-17T02:24:23.380Z,99.90
2023-05-17T02:26:56.255Z,99.90
2023-05-17T02:29:28.746Z,99.90
2023-05-17T02:32:01.930Z,99.90
2023-05-17T02:34:34.495Z,99.90
2023-05-17T02:37:07.387Z,99.90
2023-05-17T02:39:39.960Z,99.90
2023-05-17T02:42:12.849Z,99.90
2023-05-17T02:44:45.481Z,99.90
2023-05-17T02:47:19.044Z,99.90
2023-05-17T02:49:51.761Z,99.90
2023-05-17T02:52:24.541Z,99.90
2023-05-17T02:54:57.166Z,99.90
2023-05-17T02:57:29.940Z,99.90
2023-05-17T03:00:02.429Z,99.90
2023-05-17T03:02:35.489Z,99.90
2023-05-17T03:05:08.483Z,99.90
2023-05-17T03:07:41.612Z,99.90
2023-05-17T03:10:14.357Z,99.90
2023-05-17T03:12:47.139Z,99.90
2023-05-17T03:15:19.782Z,99.90
2023-05-17T03:17:53.232Z,99.90
2023-05-17T03:20:25.795Z,99.90
2023-05-17T03:22:58.607Z,99.90
2023-05-17T03:25:31.752Z,99.90
2023-05-17T03:28:04.902Z,99.90
2023-05-17T03:30:37.594Z,99.90
2023-05-17T03:33:10.538Z,99.90
2023-05-17T03:35:43.202Z,99.90
2023-05-17T03:38:16.154Z,99.90
2023-05-17T03:40:48.823Z,99.90
2023-05-17T03:43:21.692Z,99.90
2023-05-17T03:45:54.274Z,99.90
2023-05-17T03:48:27.060Z,99.90
2023-05-17T03:50:59.655Z,99.90
2023-05-17T03:53:32.455Z,99.90
2023-05-17T03:56:05.338Z,99.90
2023-05-17T03:58:38.406Z,99.90
2023-05-17T04:01:10.986Z,99.90
2023-05-17T04:03:43.855Z,99.90
2023-05-17T04:06:16.778Z,99.90
2023-05-17T04:08:49.584Z,99.90
2023-05-17T04:11:24.265Z,99.90
2023-05-17T04:13:57.177Z,99.90
2023-05-17T04:16:29.727Z,99.90
2023-05-17T04:19:02.785Z,99.90
2023-05-17T04:21:35.445Z,99.90
2023-05-17T04:24:08.867Z,99.90
2023-05-17T04:26:41.390Z,99.90
2023-05-17T04:29:14.175Z,99.90
2023-05-17T04:31:48.996Z,99.90
2023-05-17T04:34:25.143Z,99.90
2023-05-17T04:36:58.255Z,99.90
2023-05-17T04:39:31.548Z,99.90
2023-05-17T04:42:04.363Z,99.90
2023-05-17T04:44:37.204Z,99.90
2023-05-17T04:47:10.172Z,99.90
2023-05-17T04:49:43.403Z,99.90
2023-05-17T04:52:15.920Z,99.90
2023-05-17T04:54:48.697Z,99.90
2023-05-17T04:57:21.717Z,99.90
2023-05-17T04:59:54.559Z,99.90
2023-05-17T05:02:27.066Z,99.90
2023-05-17T05:05:00.848Z,99.90
2023-05-17T05:07:33.541Z,99.90
2023-05-17T05:10:07.034Z,99.90
2023-05-17T05:12:39.564Z,99.90
2023-05-17T05:15:12.639Z,99.90
2023-05-17T05:17:45.197Z,99.90
2023-05-17T05:20:18.201Z,99.90
2023-05-17T05:22:50.873Z,99.90
2023-05-17T05:25:23.680Z,99.90
2023-05-17T05:27:56.275Z,99.90
2023-05-17T05:30:29.067Z,99.90
2023-05-17T05:33:01.749Z,99.90
2023-05-17T05:35:34.755Z,99.90
2023-05-17T05:38:07.831Z,99.90
2023-05-17T05:40:40.678Z,99.90
2023-05-17T05:43:13.194Z,99.90
2023-05-17T05:45:47.381Z,99.90
2023-05-17T05:48:20.110Z,99.90
2023-05-17T05:50:53.017Z,99.90
2023-05-17T05:53:25.739Z,99.90
2023-05-17T05:56:00.464Z,99.90
2023-05-17T05:58:33.364Z,99.90
2023-05-17T06:01:07.003Z,99.90
2023-05-17T06:03:39.530Z,99.90
2023-05-17T06:06:12.515Z,99.90
2023-05-17T06:08:47.257Z,99.90
2023-05-17T06:11:21.317Z,99.90
2023-05-17T06:13:53.891Z,99.90
2023-05-17T06:16:26.776Z,99.90
2023-05-17T06:18:59.428Z,99.90
2023-05-17T06:21:32.330Z,99.90
2023-05-17T06:24:05.355Z,99.90
2023-05-17T06:26:38.251Z,99.90
2023-05-17T06:29:10.893Z,99.90
2023-05-17T06:31:43.703Z,99.90
2023-05-17T06:34:16.255Z,99.90
2023-05-17T06:36:49.469Z,99.90
2023-05-17T06:39:22.051Z,99.90
2023-05-17T06:41:54.946Z,99.90
2023-05-17T06:44:27.479Z,99.90
2023-05-17T06:47:01.063Z,99.90
2023-05-17T06:49:33.698Z,99.90
2023-05-17T06:52:06.539Z,99.90
2023-05-17T06:54:39.084Z,99.90
2023-05-17T06:57:11.928Z,99.90
2023-05-17T06:59:44.520Z,99.90
2023-05-17T07:02:17.404Z,99.90
2023-05-17T07:04:50.123Z,99.90
2023-05-17T07:07:22.992Z,99.90
2023-05-17T07:09:55.603Z,99.90
2023-05-17T07:12:28.751Z,99.90
2023-05-17T07:15:01.468Z,99.90
2023-05-17T07:17:34.535Z,99.90
2023-05-17T07:20:08.058Z,99.90
2023-05-17T07:22:41.319Z,99.90
2023-05-17T07:25:15.161Z,99.90
2023-05-17T07:27:47.982Z,99.90
2023-05-17T07:30:20.540Z,99.90
2023-05-17T07:32:53.351Z,99.90
2023-05-17T07:35:26.173Z,99.90
2023-05-17T07:37:59.748Z,99.90
2023-05-17T07:40:32.265Z,99.90
2023-05-17T07:43:05.919Z,99.90
2023-05-17T07:45:38.488Z,99.90
2023-05-17T07:48:11.498Z,99.90
2023-05-17T07:50:44.706Z,99.90
2023-05-17T07:53:17.552Z,99.90
2023-05-17T07:55:50.212Z,99.90
2023-05-17T07:58:23.042Z,99.90
2023-05-17T08:00:55.623Z,99.90
2023-05-17T08:03:28.870Z,99.90
2023-05-17T08:06:01.516Z,99.90
2023-05-17T08:08:34.389Z,99.80
2023-05-17T08:11:07.447Z,99.00
2023-05-17T08:13:40.611Z,99.90
2023-05-17T08:16:14.888Z,98.10
2023-05-17T08:18:48.106Z,95.50
2023-05-17T08:21:20.777Z,93.80
2023-05-17T08:23:53.710Z,94.00
2023-05-17T08:26:26.266Z,94.20
2023-05-17T08:28:59.206Z,94.70
2023-05-17T08:31:32.708Z,94.40
2023-05-17T08:34:05.732Z,92.40
2023-05-17T08:36:39.370Z,93.50
2023-05-17T08:39:12.711Z,92.80
2023-05-17T08:41:47.445Z,93.50
2023-05-17T08:44:21.051Z,92.20
2023-05-17T08:46:56.592Z,92.80
2023-05-17T08:49:33.298Z,91.60
2023-05-17T08:52:10.181Z,91.20
2023-05-17T08:54:43.080Z,90.60
2023-05-17T08:57:18.194Z,90.40
2023-05-17T08:59:52.199Z,90.10
2023-05-17T09:02:25.921Z,89.40
2023-05-17T09:04:58.963Z,90.10
2023-05-17T09:07:31.589Z,89.90
2023-05-17T09:10:06.091Z,86.80
2023-05-17T09:12:38.651Z,88.70
2023-05-17T09:15:16.784Z,89.80
2023-05-17T09:17:54.901Z,89.80
2023-05-17T09:20:36.627Z,87.80
2023-05-17T09:23:13.401Z,86.20
2023-05-17T09:25:50.074Z,86.00
2023-05-17T09:28:23.580Z,87.00
2023-05-17T09:30:56.697Z,85.70
2023-05-17T09:33:30.603Z,85.90
2023-05-17T09:36:03.563Z,88.50
2023-05-17T09:38:36.079Z,87.30
2023-05-17T09:41:08.867Z,87.70
2023-05-17T09:43:41.397Z,87.80
2023-05-17T09:46:15.699Z,88.40
2023-05-17T09:48:55.225Z,86.10
2023-05-17T09:51:35.166Z,86.80
2023-05-17T09:54:08.348Z,83.50
2023-05-17T09:56:41.553Z,83.70
2023-05-17T09:59:15.728Z,84.30
2023-05-17T10:01:50.522Z,83.50
2023-05-17T10:04:27.630Z,85.10
2023-05-17T10:07:01.379Z,86.90
2023-05-17T10:09:37.019Z,85.90
2023-05-17T10:12:14.430Z,83.90
2023-05-17T10:14:47.944Z,83.80
2023-05-17T10:17:21.061Z,83.30
2023-05-17T10:19:54.598Z,81.10
2023-05-17T10:22:29.352Z,82.80
2023-05-17T10:25:02.331Z,84.10
2023-05-17T10:27:35.234Z,84.20
2023-05-17T10:30:10.215Z,84.00
2023-05-17T10:32:45.408Z,82.60
2023-05-17T10:35:18.705Z,83.80
2023-05-17T10:37:51.857Z,81.20
2023-05-17T10:40:25.374Z,81.40
2023-05-17T10:42:59.911Z,83.70
2023-05-17T10:45:32.986Z,82.30
2023-05-17T10:48:07.267Z,80.70
2023-05-17T10:50:47.437Z,80.00
2023-05-17T10:53:27.399Z,78.70
2023-05-17T10:56:00.030Z,80.50
2023-05-17T10:58:33.085Z,79.10
2023-05-17T11:01:07.574Z,79.40
2023-05-17T11:03:42.054Z,81.30
2023-05-17T11:06:23.488Z,80.90
2023-05-17T11:09:17.715Z,81.20
2023-05-17T11:12:07.938Z,81.40
2023-05-17T11:14:54.029Z,79.10
2023-05-17T11:17:34.024Z,77.10
2023-05-17T11:20:13.531Z,78.90
2023-05-17T11:23:06.254Z,81.10
2023-05-17T11:25:40.648Z,82.30
2023-05-17T11:28:22.161Z,81.30
2023-05-17T11:31:01.578Z,80.40
2023-05-17T11:33:40.366Z,79.60
2023-05-17T11:36:22.090Z,78.10
2023-05-17T11:39:14.566Z,77.80
2023-05-17T11:41:51.826Z,79.90
2023-05-17T11:44:29.771Z,79.30
2023-05-17T11:47:11.464Z,77.00
2023-05-17T11:49:44.544Z,76.80
2023-05-17T11:52:21.185Z,77.40
2023-05-17T11:54:54.880Z,78.30
2023-05-17T11:57:32.766Z,75.90
2023-05-17T12:00:06.174Z,75.20
2023-05-17T12:02:39.180Z,76.40
2023-05-17T12:05:12.199Z,77.10
2023-05-17T12:07:46.348Z,77.80
2023-05-17T12:10:19.235Z,77.00
2023-05-17T12:12:52.844Z,77.10
2023-05-17T12:15:25.996Z,77.60
2023-05-17T12:17:59.048Z,78.10
2023-05-17T12:20:33.405Z,79.90
2023-05-17T12:23:06.484Z,79.50
2023-05-17T12:25:39.159Z,79.10
2023-05-17T12:28:22.433Z,79.90
2023-05-17T12:30:58.967Z,81.40
2023-05-17T12:33:39.969Z,80.50
2023-05-17T12:36:13.778Z,80.80
2023-05-17T12:38:47.301Z,80.10
2023-05-17T12:41:22.914Z,79.30
2023-05-17T12:44:06.092Z,77.90
2023-05-17T12:46:54.192Z,78.60
2023-05-17T12:49:27.630Z,76.40
2023-05-17T12:52:05.434Z,75.70
2023-05-17T12:54:40.089Z,74.00
2023-05-17T12:57:16.897Z,74.60
2023-05-17T12:59:52.634Z,75.40
2023-05-17T13:02:25.649Z,74.80
2023-05-17T13:04:58.768Z,75.40
2023-05-17T13:07:31.482Z,74.70
2023-05-17T13:10:04.616Z,74.50
2023-05-17T13:12:40.422Z,74.60
2023-05-17T13:15:21.224Z,74.10
2023-05-17T13:17:53.827Z,75.30
2023-05-17T13:20:28.029Z,75.20
2023-05-17T13:23:00.894Z,75.40
2023-05-17T13:25:34.085Z,75.80
2023-05-17T13:28:06.688Z,75.00
2023-05-17T13:30:40.138Z,73.90
2023-05-17T13:33:12.915Z,72.10
2023-05-17T13:35:45.898Z,71.80
2023-05-17T13:38:18.495Z,71.10
2023-05-17T13:40:52.028Z,70.10
2023-05-17T13:43:24.627Z,70.50
2023-05-17T13:45:59.007Z,71.10
2023-05-17T13:48:31.838Z,70.00
2023-05-17T13:51:04.905Z,69.20
2023-05-17T13:53:38.805Z,69.00
2023-05-17T13:56:12.039Z,69.80
2023-05-17T13:58:44.900Z,69.50
2023-05-17T14:01:18.799Z,68.10
2023-05-17T14:03:51.612Z,68.70
2023-05-17T14:06:24.737Z,67.70
2023-05-17T14:08:59.659Z,66.10
2023-05-17T14:11:33.236Z,66.50
2023-05-17T14:14:06.324Z,67.10
2023-05-17T14:16:39.443Z,67.00
2023-05-17T14:19:12.243Z,65.90
2023-05-17T14:21:45.120Z,67.60
2023-05-17T14:24:17.797Z,67.00
2023-05-17T14:26:50.815Z,67.30
2023-05-17T14:29:23.782Z,67.50
2023-05-17T14:31:56.708Z,67.00
2023-05-17T14:34:30.935Z,66.70
2023-05-17T14:37:03.936Z,67.50
2023-05-17T14:39:36.990Z,67.40
2023-05-17T14:42:10.220Z,68.10
2023-05-17T14:44:42.901Z,68.30
2023-05-17T14:47:16.588Z,69.00
2023-05-17T14:49:49.269Z,68.90
2023-05-17T14:52:22.836Z,69.20
2023-05-17T14:54:55.560Z,69.50
2023-05-17T14:57:28.528Z,68.10
2023-05-17T15:00:01.489Z,68.20
2023-05-17T15:02:34.582Z,69.40
2023-05-17T15:05:08.037Z,70.80
2023-05-17T15:07:41.592Z,69.70
2023-05-17T15:10:14.280Z,69.50
2023-05-17T15:12:47.700Z,69.90
2023-05-17T15:15:22.310Z,70.90
2023-05-17T15:17:55.301Z,70.60
2023-05-17T15:20:28.096Z,70.50
2023-05-17T15:23:01.053Z,70.60
2023-05-17T15:25:33.604Z,71.10
2023-05-17T15:28:06.522Z,71.90
2023-05-17T15:30:41.350Z,72.60
2023-05-17T15:33:14.873Z,72.20
2023-05-17T15:35:47.827Z,72.40
2023-05-17T15:38:20.827Z,70.80
2023-05-17T15:41:06.456Z,71.50
2023-05-17T15:43:39.458Z,72.40
2023-05-17T15:46:12.365Z,71.70
2023-05-17T15:48:45.636Z,70.60
2023-05-17T15:51:18.267Z,71.10
2023-05-17T15:53:51.261Z,71.50
2023-05-17T15:56:23.801Z,72.40
2023-05-17T15:58:56.800Z,72.30
2023-05-17T16:01:29.333Z,73.20
2023-05-17T16:04:02.234Z,73.80
2023-05-17T16:06:36.786Z,73.20
2023-05-17T16:09:09.723Z,73.80
2023-05-17T16:11:42.424Z,74.10
2023-05-17T16:14:15.256Z,73.90
2023-05-17T16:16:47.773Z,74.70
2023-05-17T16:19:20.702Z,74.90
2023-05-17T16:21:53.701Z,75.00
2023-05-17T16:24:30.915Z,74.90
2023-05-17T16:27:05.226Z,74.00
2023-05-17T16:29:40.524Z,74.10
2023-05-17T16:32:13.256Z,74.90
2023-05-17T16:34:46.099Z,75.10
2023-05-17T16:37:18.736Z,75.40
2023-05-17T16:39:51.797Z,75.60
2023-05-17T16:42:27.138Z,75.40
2023-05-17T16:44:59.949Z,76.20
2023-05-17T16:47:32.874Z,76.80
2023-05-17T16:50:07.154Z,77.40
2023-05-17T16:52:39.874Z,77.70
2023-05-17T16:55:12.830Z,77.90
2023-05-17T16:57:45.591Z,77.70
2023-05-17T17:00:18.797Z,76.20
2023-05-17T17:02:51.666Z,76.80
2023-05-17T17:05:27.506Z,75.90
2023-05-17T17:08:00.300Z,76.10
2023-05-17T17:10:33.253Z,76.40
2023-05-17T17:13:05.758Z,76.60
2023-05-17T17:15:38.587Z,77.50
2023-05-17T17:18:11.423Z,77.90
2023-05-17T17:20:45.260Z,78.50
2023-05-17T17:23:17.773Z,78.80
2023-05-17T17:25:50.663Z,78.60
2023-05-17T17:28:23.867Z,79.00
2023-05-17T17:30:56.861Z,78.80
2023-05-17T17:33:29.492Z,79.10
2023-05-17T17:36:05.304Z,79.20
2023-05-17T17:38:38.176Z,79.90
2023-05-17T17:41:11.444Z,80.30
2023-05-17T17:43:47.027Z,80.50
2023-05-17T17:46:22.671Z,81.40
2023-05-17T17:48:56.952Z,81.10
2023-05-17T17:51:32.956Z,81.00
2023-05-17T17:54:07.400Z,81.00
2023-05-17T17:56:40.555Z,81.60
2023-05-17T17:59:13.369Z,81.70
2023-05-17T18:01:46.211Z,82.50
2023-05-17T18:04:18.856Z,82.60
2023-05-17T18:06:51.848Z,83.10
2023-05-17T18:09:24.700Z,83.40
2023-05-17T18:11:59.719Z,83.70
2023-05-17T18:14:33.764Z,84.30
2023-05-17T18:17:08.213Z,84.40
2023-05-17T18:19:41.031Z,85.00
2023-05-17T18:22:16.890Z,85.70
2023-05-17T18:24:51.762Z,87.10
2023-05-17T18:27:24.623Z,88.00
2023-05-17T18:29:57.265Z,87.50
2023-05-17T18:32:30.764Z,87.00
2023-05-17T18:35:05.777Z,86.60
2023-05-17T18:37:38.894Z,86.90
2023-05-17T18:40:12.154Z,87.10
2023-05-17T18:42:45.000Z,87.00
2023-05-17T18:45:17.786Z,87.20
2023-05-17T18:47:50.953Z,87.50
2023-05-17T18:50:23.502Z,88.40
2023-05-17T18:52:57.235Z,88.30
2023-05-17T18:55:29.889Z,88.60
2023-05-17T18:58:02.665Z,88.40
2023-05-17T19:00:35.444Z,88.40
2023-05-17T19:03:08.331Z,89.00
2023-05-17T19:05:40.964Z,89.10
2023-05-17T19:08:13.825Z,89.10
2023-05-17T19:10:46.808Z,89.10
2023-05-17T19:13:19.728Z,89.10
2023-05-17T19:15:52.773Z,89.00
2023-05-17T19:18:29.032Z,89.40
2023-05-17T19:21:04.033Z,89.70
2023-05-17T19:23:39.897Z,89.60
2023-05-17T19:26:12.521Z,89.70
2023-05-17T19:28:45.664Z,89.80
2023-05-17T19:31:21.343Z,89.90
2023-05-17T19:33:54.166Z,90.00
2023-05-17T19:36:26.713Z,89.90
2023-05-17T19:38:59.519Z,89.80
2023-05-17T19:41:32.069Z,90.00
2023-05-17T19:44:05.120Z,90.00
2023-05-17T19:46:37.821Z,90.10
2023-05-17T19:49:11.157Z,90.20
2023-05-17T19:51:43.873Z,90.30
2023-05-17T19:54:18.807Z,90.20
2023-05-17T19:56:51.638Z,90.60
2023-05-17T19:59:24.975Z,90.50
2023-05-17T20:01:57.895Z,90.70
2023-05-17T20:04:30.861Z,90.80
2023-05-17T20:07:03.374Z,90.90
2023-05-17T20:09:36.416Z,90.70
2023-05-17T20:12:09.345Z,90.70
2023-05-17T20:14:42.147Z,90.80
2023-05-17T20:17:14.738Z,90.70
2023-05-17T20:19:47.544Z,90.80
2023-05-17T20:22:21.027Z,90.70
2023-05-17T20:24:54.692Z,90.90
2023-05-17T20:27:29.003Z,90.90
2023-05-17T20:30:01.870Z,90.80
2023-05-17T20:32:34.555Z,90.80
2023-05-17T20:35:07.836Z,90.90
2023-05-17T20:37:40.518Z,91.00
2023-05-17T20:40:13.442Z,91.00
2023-05-17T20:42:47.397Z,90.90
2023-05-17T20:45:20.301Z,90.80
2023-05-17T20:47:52.889Z,90.80
2023-05-17T20:50:25.759Z,90.70
2023-05-17T20:52:58.343Z,90.90
2023-05-17T20:55:31.384Z,90.90
2023-05-17T20:58:03.912Z,91.10
2023-05-17T21:00:38.075Z,91.20
2023-05-17T21:03:11.251Z,91.20
2023-05-17T21:05:44.099Z,91.10
2023-05-17T21:08:16.629Z,91.10
2023-05-17T21:10:50.218Z,91.30
2023-05-17T21:13:23.984Z,91.10
2023-05-17T21:15:57.136Z,91.20
2023-05-17T21:18:29.703Z,91.30
2023-05-17T21:21:02.501Z,91.60
2023-05-17T21:23:35.118Z,91.70
2023-05-17T21:26:08.385Z,91.80
2023-05-17T21:28:41.025Z,91.80
2023-05-17T21:31:14.649Z,91.80
2023-05-17T21:33:47.267Z,91.90
2023-05-17T21:36:20.057Z,92.00
2023-05-17T21:38:52.602Z,92.00
2023-05-17T21:41:25.526Z,92.20
2023-05-17T21:43:58.074Z,92.20
2023-05-17T21:46:31.226Z,92.40
2023-05-17T21:49:03.773Z,92.50
2023-05-17T21:51:36.605Z,92.70
2023-05-17T21:54:09.329Z,93.00
2023-05-17T21:56:42.159Z,93.30
2023-05-17T21:59:14.664Z,93.60
2023-05-17T22:01:47.517Z,94.20
2023-05-17T22:04:20.056Z,94.60
2023-05-17T22:06:53.162Z,94.90
2023-05-17T22:09:25.711Z,95.20
2023-05-17T22:11:58.816Z,95.50
2023-05-17T22:14:33.409Z,96.00
2023-05-17T22:17:08.691Z,96.40
2023-05-17T22:19:41.684Z,97.10
2023-05-17T22:22:14.476Z,97.90
2023-05-17T22:24:47.072Z,98.40
2023-05-17T22:27:20.646Z,99.10
2023-05-17T22:29:53.171Z,99.90
2023-05-17T22:32:26.014Z,99.90
2023-05-17T22:34:58.563Z,99.90
2023-05-17T22:37:33.054Z,99.90
2023-05-17T22:40:08.178Z,99.90
2023-05-17T22:42:43.204Z,99.90
2023-05-17T22:45:15.813Z,99.90
2023-05-17T22:47:48.639Z,99.90
2023-05-17T22:50:24.620Z,99.90
2023-05-17T22:53:06.019Z,99.90
2023-05-17T22:55:38.593Z,99.90
2023-05-17T22:58:11.525Z,99.90
2023-05-17T23:00:44.422Z,99.90
2023-05-17T23:03:18.155Z,99.90
2023-05-17T23:06:02.044Z,99.90
2023-05-17T23:08:35.047Z,99.90
2023-05-17T23:11:07.681Z,99.90
2023-05-17T23:13:42.342Z,99.90
2023-05-17T23:16:14.912Z,99.90
2023-05-17T23:18:47.786Z,99.90
2023-05-17T23:21:20.713Z,99.90
2023-05-17T23:23:53.722Z,99.90
2023-05-17T23:26:28.409Z,99.90
2023-05-17T23:29:05.476Z,99.90
2023-05-17T23:31:38.657Z,99.90
2023-05-17T23:34:11.919Z,99.90
2023-05-17T23:36:44.406Z,99.90
2023-05-17T23:39:17.180Z,99.90
2023-05-17T23:41:51.873Z,99.90
2023-05-17T23:44:26.076Z,99.90
2023-05-17T23:47:00.009Z,99.90
2023-05-17T23:49:32.817Z,99.90
2023-05-17T23:52:10.930Z,99.90
2023-05-17T23:54:43.744Z,99.90
2023-05-17T23:57:16.590Z,99.90
2023-05-17T23:59:49.457Z,99.90
